Time;durP1;ratioP1;P1;durP2;ratioP2;P2;SDS_P1;SDS_P2;PMS_P1;PMS_P2;Temp;Humidity;BMP_temperature;BMP_pressure;BME280_temperature;BME280_humidity;BME280_pressure;Samples;Min_cycle;Max_cycle;Signal;HPM_P1;HPM_P2
2023/04/21 00:00:17;;;;;;;2.05;1.27;;;8.80;72.30;;;;;;5113879;28;20058;-70
2023/04/21 00:02:45;;;;;;;2.08;1.40;;;8.70;72.40;;;;;;5095420;28;20036;-70
2023/04/21 00:05:12;;;;;;;1.67;1.13;;;8.60;72.50;;;;;;5113758;28;20393;-71
2023/04/21 00:07:39;;;;;;;2.58;1.30;;;8.70;72.60;;;;;;5114106;28;20035;-71
2023/04/21 00:10:07;;;;;;;2.58;1.50;;;8.70;72.70;;;;;;5113583;28;20489;-70
2023/04/21 00:12:33;;;;;;;2.28;1.30;;;8.70;72.80;;;;;;5113608;28;20047;-70
2023/04/21 00:14:59;;;;;;;1.75;1.20;;;8.60;72.90;;;;;;5113474;28;20393;-71
2023/04/21 00:17:25;;;;;;;1.83;1.25;;;8.60;72.90;;;;;;5094529;28;20048;-71
2023/04/21 00:19:50;;;;;;;2.85;1.60;;;8.60;73.00;;;;;;5112520;28;20042;-71
2023/04/21 00:22:17;;;;;;;3.08;1.70;;;8.60;73.10;;;;;;5113684;28;20397;-71
2023/04/21 00:24:44;;;;;;;3.08;1.70;;;8.60;73.30;;;;;;5094360;28;20085;-71
2023/04/21 00:27:10;;;;;;;3.35;1.90;;;8.60;73.40;;;;;;5113213;28;20031;-71
2023/04/21 00:29:37;;;;;;;3.15;1.63;;;8.60;73.40;;;;;;5093716;28;20040;-71
2023/04/21 00:32:07;;;;;;;3.25;1.77;;;8.60;73.50;;;;;;5094881;28;20093;-71
2023/04/21 00:34:33;;;;;;;2.70;1.50;;;8.60;73.60;;;;;;5113424;28;20439;-71
2023/04/21 00:36:58;;;;;;;2.80;1.50;;;8.60;73.70;;;;;;5113486;28;20108;-71
2023/04/21 00:39:24;;;;;;;2.63;1.50;;;8.60;73.80;;;;;;5112910;28;20039;-71
2023/04/21 00:41:50;;;;;;;2.47;1.55;;;8.70;73.90;;;;;;5112964;28;20047;-71
2023/04/21 00:44:16;;;;;;;2.10;1.20;;;8.50;73.90;;;;;;5112783;28;20055;-71
2023/04/21 00:46:42;;;;;;;2.97;1.60;;;8.70;74.10;;;;;;5093327;28;20047;-71
2023/04/21 00:49:08;;;;;;;2.67;1.60;;;8.60;74.20;;;;;;5113358;28;20036;-71
2023/04/21 00:51:35;;;;;;;2.70;1.50;;;8.60;74.30;;;;;;5113311;28;20088;-71
2023/04/21 00:54:04;;;;;;;2.63;1.42;;;8.60;74.30;;;;;;5093687;28;20040;-71
2023/04/21 00:56:32;;;;;;;2.67;1.55;;;8.60;74.50;;;;;;5113277;28;20048;-70
2023/04/21 00:58:59;;;;;;;1.73;1.00;;;8.60;74.60;;;;;;5112709;28;20074;-71
2023/04/21 01:01:28;;;;;;;2.33;1.48;;;8.60;74.70;;;;;;5094620;28;20088;-71
2023/04/21 01:03:56;;;;;;;2.88;1.50;;;8.60;74.80;;;;;;5112601;28;20046;-71
2023/04/21 01:06:22;;;;;;;2.92;1.60;;;8.50;74.80;;;;;;5112980;28;20128;-70
2023/04/21 01:08:47;;;;;;;2.50;1.48;;;8.60;74.90;;;;;;5093521;28;20067;-71
2023/04/21 01:11:13;;;;;;;2.33;1.23;;;8.60;75.00;;;;;;5112670;28;20039;-71
2023/04/21 01:13:40;;;;;;;2.13;1.10;;;8.50;75.10;;;;;;5112605;28;20042;-72
2023/04/21 01:16:07;;;;;;;2.05;1.15;;;8.60;75.20;;;;;;5112542;28;20047;-71
2023/04/21 01:18:35;;;;;;;2.63;1.50;;;8.60;75.30;;;;;;5112248;28;20070;-71
2023/04/21 01:21:03;;;;;;;3.28;1.58;;;8.50;75.40;;;;;;5112314;28;20435;-71
2023/04/21 01:23:28;;;;;;;2.88;1.50;;;8.60;75.60;;;;;;5092478;28;20465;-71
2023/04/21 01:25:54;;;;;;;2.70;1.60;;;8.60;75.60;;;;;;5112368;28;20082;-71
2023/04/21 01:28:22;;;;;;;2.60;1.52;;;8.50;75.50;;;;;;5112214;28;20038;-71
2023/04/21 01:30:48;;;;;;;1.50;1.00;;;8.50;75.60;;;;;;5092755;28;20036;-71
2023/04/21 01:33:13;;;;;;;1.88;1.10;;;8.60;75.70;;;;;;5094564;28;20058;-72
2023/04/21 01:35:39;;;;;;;1.75;1.05;;;8.50;75.70;;;;;;5097494;28;20434;-71
2023/04/21 01:38:05;;;;;;;2.30;1.20;;;8.60;75.80;;;;;;5115737;28;20127;-72
2023/04/21 01:40:31;;;;;;;1.73;1.02;;;8.70;75.90;;;;;;5095840;28;20401;-71
2023/04/21 01:42:57;;;;;;;2.00;1.20;;;8.70;75.90;;;;;;5097721;28;20047;-72
2023/04/21 01:45:23;;;;;;;2.25;1.20;;;8.60;75.90;;;;;;5116337;28;20529;-72
2023/04/21 01:47:48;;;;;;;1.60;1.10;;;8.70;76.00;;;;;;5115860;28;20043;-71
2023/04/21 01:50:14;;;;;;;2.10;1.17;;;8.60;76.00;;;;;;5115994;28;20421;-72
2023/04/21 01:52:40;;;;;;;1.92;1.00;;;8.60;76.10;;;;;;5115593;28;20040;-71
2023/04/21 01:55:06;;;;;;;2.17;1.40;;;8.70;76.20;;;;;;5115757;28;20051;-71
2023/04/21 01:57:32;;;;;;;1.63;1.05;;;8.60;76.20;;;;;;5115679;28;20043;-72
2023/04/21 01:59:57;;;;;;;1.88;1.20;;;8.70;76.30;;;;;;5096777;28;20051;-71
2023/04/21 02:02:23;;;;;;;2.03;1.20;;;8.70;76.40;;;;;;5115372;28;20040;-71
2023/04/21 02:04:49;;;;;;;1.15;0.95;;;8.70;76.40;;;;;;5115445;28;20405;-71
2023/04/21 02:07:14;;;;;;;2.55;1.27;;;8.70;76.40;;;;;;5115779;28;20089;-71
2023/04/21 02:09:41;;;;;;;1.98;1.20;;;8.70;76.40;;;;;;5115400;28;20032;-71
2023/04/21 02:12:07;;;;;;;1.60;1.02;;;8.70;76.50;;;;;;5115387;28;20084;-71
2023/04/21 02:14:32;;;;;;;1.55;1.00;;;8.70;76.60;;;;;;5096751;28;20047;-72
2023/04/21 02:16:58;;;;;;;2.17;1.30;;;8.70;76.70;;;;;;5115165;28;20035;-71
2023/04/21 02:19:24;;;;;;;1.90;1.00;;;8.70;76.80;;;;;;5115294;28;20038;-71
2023/04/21 02:21:49;;;;;;;1.88;1.15;;;8.70;76.80;;;;;;5115739;28;20043;-71
2023/04/21 02:24:15;;;;;;;1.55;1.15;;;8.60;76.80;;;;;;5115052;28;20050;-72
2023/04/21 02:26:41;;;;;;;2.35;1.30;;;8.70;76.90;;;;;;5115104;28;20128;-71
2023/04/21 02:29:06;;;;;;;1.90;1.35;;;8.70;77.00;;;;;;5080140;28;20042;-71
2023/04/21 02:31:32;;;;;;;1.50;1.00;;;8.60;77.00;;;;;;5114998;28;20048;-71
2023/04/21 02:33:58;;;;;;;2.17;1.30;;;8.70;77.20;;;;;;5095476;28;20040;-71
2023/04/21 02:36:24;;;;;;;2.10;1.40;;;8.70;77.20;;;;;;5115045;28;20044;-72
2023/04/21 02:38:50;;;;;;;1.70;1.08;;;8.60;77.20;;;;;;5114930;28;20038;-72
2023/04/21 02:41:15;;;;;;;2.40;1.40;;;8.70;77.40;;;;;;5095608;28;20465;-71
2023/04/21 02:43:41;;;;;;;1.77;1.20;;;8.60;77.40;;;;;;5114155;28;20046;-71
2023/04/21 02:46:07;;;;;;;1.55;1.05;;;8.60;78.00;;;;;;5114542;28;20075;-71
2023/04/21 02:48:34;;;;;;;1.50;1.10;;;8.60;77.50;;;;;;5114767;28;20054;-71
2023/04/21 02:50:59;;;;;;;2.10;1.25;;;8.60;77.50;;;;;;5114568;28;20070;-72
2023/04/21 02:53:25;;;;;;;1.88;1.13;;;8.60;77.60;;;;;;5114910;28;20042;-72
2023/04/21 02:55:51;;;;;;;1.38;0.90;;;8.70;77.70;;;;;;5114768;28;20051;-72
2023/04/21 02:58:17;;;;;;;1.33;1.10;;;8.60;77.70;;;;;;5095174;28;20047;-72
2023/04/21 03:00:43;;;;;;;2.45;1.25;;;8.70;77.70;;;;;;5094496;28;20044;-72
2023/04/21 03:03:08;;;;;;;1.98;1.27;;;8.60;77.70;;;;;;5096435;28;20402;-72
2023/04/21 03:05:34;;;;;;;2.13;1.30;;;8.70;77.90;;;;;;5096159;28;20044;-72
2023/04/21 03:08:00;;;;;;;2.25;1.23;;;8.70;77.90;;;;;;5114736;28;20036;-71
2023/04/21 03:10:26;;;;;;;1.75;1.23;;;8.60;77.90;;;;;;5114339;28;20047;-71
2023/04/21 03:12:52;;;;;;;1.77;1.10;;;8.70;78.00;;;;;;5114356;28;20028;-71
2023/04/21 03:15:18;;;;;;;2.17;1.23;;;8.70;78.10;;;;;;5114426;28;20064;-71
2023/04/21 03:17:44;;;;;;;1.75;1.23;;;8.70;78.10;;;;;;5114266;28;20045;-72
2023/04/21 03:20:10;;;;;;;2.08;1.25;;;8.60;78.20;;;;;;5114563;28;20442;-71
2023/04/21 03:22:37;;;;;;;2.05;1.30;;;8.70;78.30;;;;;;5113973;28;20031;-71
2023/04/21 03:25:04;;;;;;;1.80;1.15;;;8.60;78.30;;;;;;5094460;28;20044;-71
2023/04/21 03:27:30;;;;;;;1.35;1.00;;;8.60;78.30;;;;;;5113958;28;20123;-71
2023/04/21 03:29:55;;;;;;;1.80;1.25;;;8.80;78.40;;;;;;5094747;28;20097;-71
2023/04/21 03:32:21;;;;;;;2.55;1.50;;;8.60;78.40;;;;;;5114032;28;20051;-71
2023/04/21 03:34:49;;;;;;;2.17;1.45;;;8.70;78.50;;;;;;5096323;28;20036;-71
2023/04/21 03:37:14;;;;;;;1.52;1.17;;;8.60;78.40;;;;;;5096231;28;20055;-72
2023/04/21 03:39:40;;;;;;;2.63;1.58;;;8.70;78.50;;;;;;5078746;28;20137;-72
2023/04/21 03:42:05;;;;;;;2.70;1.30;;;8.60;78.50;;;;;;5114208;28;20040;-71
2023/04/21 03:44:31;;;;;;;1.95;1.30;;;8.70;78.70;;;;;;5095199;28;20058;-71
2023/04/21 03:46:56;;;;;;;2.78;1.40;;;8.70;78.70;;;;;;5094512;28;20404;-72
2023/04/21 03:49:22;;;;;;;1.83;1.20;;;8.60;78.70;;;;;;5113841;28;20035;-71
2023/04/21 03:51:48;;;;;;;2.35;1.33;;;8.60;78.70;;;;;;5114102;28;20039;-71
2023/04/21 03:54:14;;;;;;;3.30;1.80;;;8.70;78.80;;;;;;5094130;28;20067;-71
2023/04/21 03:56:39;;;;;;;2.05;1.42;;;8.70;78.80;;;;;;5113127;28;20104;-71
2023/04/21 03:59:14;;;;;;;2.70;1.60;;;8.70;78.90;;;;;;5113695;28;20039;-71
2023/04/21 04:01:41;;;;;;;2.97;1.70;;;8.70;79.00;;;;;;5113776;28;20476;-71
2023/04/21 04:04:06;;;;;;;1.67;1.35;;;8.70;79.00;;;;;;5095475;28;20031;-71
2023/04/21 04:06:32;;;;;;;2.13;1.25;;;8.70;79.00;;;;;;5114012;28;20123;-71
2023/04/21 04:09:01;;;;;;;1.95;1.40;;;8.70;79.00;;;;;;5113825;28;20031;-71
2023/04/21 04:11:26;;;;;;;3.05;1.55;;;8.70;79.00;;;;;;5113750;28;20103;-71
2023/04/21 04:13:52;;;;;;;4.05;1.77;;;8.70;79.10;;;;;;5095167;28;20051;-71
2023/04/21 04:16:17;;;;;;;2.35;1.38;;;8.70;79.10;;;;;;5113715;28;20036;-71
2023/04/21 04:18:44;;;;;;;3.08;1.90;;;8.70;79.10;;;;;;5093705;28;20492;-72
2023/04/21 04:21:10;;;;;;;2.60;1.60;;;8.80;79.20;;;;;;5113456;28;20073;-72
2023/04/21 04:23:36;;;;;;;3.58;1.85;;;8.80;79.20;;;;;;5094559;28;20043;-71
2023/04/21 04:26:04;;;;;;;2.55;1.52;;;8.80;79.30;;;;;;5113496;28;20046;-71
2023/04/21 04:28:30;;;;;;;2.55;1.60;;;8.80;79.30;;;;;;5113465;28;20047;-71
2023/04/21 04:30:55;;;;;;;2.78;1.48;;;8.80;79.40;;;;;;5114011;28;20043;-71
2023/04/21 04:33:21;;;;;;;2.55;1.75;;;8.80;79.40;;;;;;5094354;28;20032;-71
2023/04/21 04:35:46;;;;;;;3.35;1.73;;;8.80;79.40;;;;;;5113288;28;20046;-71
2023/04/21 04:38:14;;;;;;;3.28;2.05;;;8.80;79.50;;;;;;5113281;28;20062;-71
2023/04/21 04:40:41;;;;;;;2.45;1.42;;;8.80;79.40;;;;;;5113758;28;20043;-72
2023/04/21 04:43:07;;;;;;;4.45;2.38;;;8.90;79.50;;;;;;5113649;28;20051;-71
2023/04/21 04:45:33;;;;;;;3.33;1.92;;;8.80;79.50;;;;;;5093928;28;20470;-72
2023/04/21 04:47:59;;;;;;;3.47;1.90;;;8.90;79.60;;;;;;5113158;28;20101;-71
2023/04/21 04:50:24;;;;;;;3.50;1.80;;;8.80;79.60;;;;;;5113074;28;20040;-71
2023/04/21 04:52:50;;;;;;;3.08;1.80;;;8.90;79.70;;;;;;5113450;28;20039;-71
2023/04/21 04:55:16;;;;;;;3.83;1.83;;;8.80;79.70;;;;;;5113010;28;20043;-71
2023/04/21 04:57:41;;;;;;;3.25;2.10;;;8.90;79.80;;;;;;5113014;28;20186;-71
2023/04/21 05:00:10;;;;;;;4.35;2.42;;;8.90;79.80;;;;;;5113510;28;20035;-71
2023/04/21 05:02:36;;;;;;;3.47;2.03;;;8.80;79.80;;;;;;5113021;28;20061;-71
2023/04/21 05:05:04;;;;;;;3.63;2.15;;;8.90;79.90;;;;;;5092282;28;20379;-71
2023/04/21 05:07:29;;;;;;;2.75;1.75;;;8.80;79.90;;;;;;5076914;28;20521;-72
2023/04/21 05:09:55;;;;;;;3.08;1.92;;;8.90;80.00;;;;;;5112731;28;20126;-71
2023/04/21 05:12:21;;;;;;;3.55;2.10;;;8.90;80.00;;;;;;5113063;28;20092;-72
2023/04/21 05:14:46;;;;;;;4.03;2.05;;;8.90;80.00;;;;;;5113014;28;20123;-72
2023/04/21 05:17:12;;;;;;;2.78;1.77;;;8.90;80.00;;;;;;5112644;28;20036;-72
2023/04/21 05:19:38;;;;;;;4.13;2.25;;;8.90;80.00;;;;;;5112723;28;20497;-72
2023/04/21 05:22:05;;;;;;;2.63;1.73;;;9.00;80.10;;;;;;5094444;28;20448;-71
2023/04/21 05:24:32;;;;;;;4.25;2.40;;;8.90;80.10;;;;;;5112530;28;20043;-71
2023/04/21 05:26:58;;;;;;;3.67;2.10;;;9.00;80.10;;;;;;5112947;28;20105;-70
2023/04/21 05:29:23;;;;;;;3.05;2.00;;;9.00;80.20;;;;;;5112602;28;20497;-70
2023/04/21 05:31:49;;;;;;;5.05;2.55;;;9.00;80.20;;;;;;5112886;28;20043;-70
2023/04/21 05:34:14;;;;;;;3.25;1.85;;;9.00;80.20;;;;;;5093742;28;20032;-71
2023/04/21 05:36:41;;;;;;;3.80;2.20;;;9.00;80.20;;;;;;5112473;28;20054;-71
2023/04/21 05:39:07;;;;;;;3.47;2.10;;;9.00;80.20;;;;;;5094199;28;20039;-71
2023/04/21 05:41:32;;;;;;;3.47;2.10;;;9.00;80.20;;;;;;5093449;28;20048;-71
2023/04/21 05:43:58;;;;;;;4.70;2.42;;;9.00;80.30;;;;;;5093162;28;20119;-71
2023/04/21 05:46:23;;;;;;;4.28;2.22;;;9.10;80.30;;;;;;5093841;28;20134;-71
2023/04/21 05:48:49;;;;;;;3.55;2.20;;;9.10;80.40;;;;;;5112477;28;20122;-71
2023/04/21 05:51:15;;;;;;;3.65;2.22;;;9.10;80.50;;;;;;5112340;28;20484;-71
2023/04/21 05:53:42;;;;;;;4.28;2.40;;;9.10;80.50;;;;;;5112350;28;20131;-71
2023/04/21 05:56:09;;;;;;;3.88;2.20;;;9.10;80.50;;;;;;5112580;28;20396;-70
2023/04/21 05:58:35;;;;;;;3.95;2.13;;;9.10;80.50;;;;;;5093084;28;20102;-71
2023/04/21 06:01:01;;;;;;;4.00;2.13;;;9.20;80.60;;;;;;5112160;28;20044;-71
2023/04/21 06:03:26;;;;;;;3.75;2.10;;;9.20;80.60;;;;;;5112607;28;20046;-71
2023/04/21 06:05:54;;;;;;;3.33;2.10;;;9.20;80.60;;;;;;5111959;28;20455;-70
2023/04/21 06:08:19;;;;;;;3.70;2.13;;;9.20;80.60;;;;;;5112422;28;20395;-71
2023/04/21 06:10:45;;;;;;;2.45;1.67;;;9.30;80.60;;;;;;5112195;28;20100;-71
2023/04/21 06:13:11;;;;;;;3.20;1.90;;;9.30;80.60;;;;;;5111974;28;20035;-71
2023/04/21 06:15:36;;;;;;;2.90;1.80;;;9.30;80.60;;;;;;5111933;28;20070;-70
2023/04/21 06:18:02;;;;;;;2.60;1.70;;;9.40;80.60;;;;;;5112417;28;20093;-71
2023/04/21 06:20:27;;;;;;;2.65;1.42;;;9.40;80.70;;;;;;5115417;28;20102;-72
2023/04/21 06:22:53;;;;;;;2.58;1.50;;;9.40;80.70;;;;;;5115360;28;20047;-72
2023/04/21 06:25:19;;;;;;;3.33;1.60;;;9.50;80.70;;;;;;5115336;28;20051;-73
2023/04/21 06:27:45;;;;;;;2.88;1.58;;;9.50;80.70;;;;;;5096775;28;20089;-73
2023/04/21 06:30:14;;;;;;;3.13;1.80;;;9.40;80.70;;;;;;5115174;28;20073;-72
2023/04/21 06:32:40;;;;;;;3.30;1.80;;;9.50;80.70;;;;;;5064138;28;20048;-72
2023/04/21 06:35:06;;;;;;;3.17;1.90;;;9.60;80.80;;;;;;5097707;28;20047;-72
2023/04/21 06:37:32;;;;;;;2.72;1.65;;;9.60;80.70;;;;;;5115051;28;20039;-73
2023/04/21 06:39:57;;;;;;;2.25;1.52;;;9.70;80.70;;;;;;5115446;28;20043;-73
2023/04/21 06:42:23;;;;;;;2.53;1.50;;;9.80;80.60;;;;;;5115091;28;20059;-73
2023/04/21 06:44:48;;;;;;;2.85;1.70;;;9.80;80.60;;;;;;5115373;28;20504;-72
2023/04/21 06:47:15;;;;;;;2.92;1.77;;;9.90;80.50;;;;;;5115103;28;20051;-73
2023/04/21 06:49:41;;;;;;;2.78;1.70;;;10.10;80.40;;;;;;5114954;28;20036;-73
2023/04/21 06:52:07;;;;;;;2.67;1.60;;;10.10;80.30;;;;;;5115030;28;20144;-73
2023/04/21 06:54:32;;;;;;;2.25;1.65;;;10.20;80.20;;;;;;5114985;28;20455;-73
2023/04/21 06:56:58;;;;;;;3.50;1.90;;;10.20;80.10;;;;;;5096569;28;20078;-73
2023/04/21 06:59:24;;;;;;;2.58;1.60;;;10.20;80.10;;;;;;5079828;28;20074;-73
2023/04/21 07:01:51;;;;;;;2.67;1.65;;;10.30;80.20;;;;;;5114564;28;20044;-72
2023/04/21 07:04:17;;;;;;;2.90;1.67;;;10.30;80.30;;;;;;5095995;28;20051;-73
2023/04/21 07:06:43;;;;;;;2.47;1.52;;;10.30;80.30;;;;;;5114724;28;20105;-73
2023/04/21 07:09:09;;;;;;;3.58;1.98;;;10.30;80.30;;;;;;5115126;28;20043;-73
2023/04/21 07:11:34;;;;;;;2.90;1.63;;;10.30;80.40;;;;;;5114506;28;20043;-73
2023/04/21 07:14:01;;;;;;;2.63;1.67;;;10.50;80.50;;;;;;5114535;28;20508;-73
2023/04/21 07:16:27;;;;;;;2.72;1.75;;;10.50;80.60;;;;;;5114865;28;20040;-73
2023/04/21 07:18:53;;;;;;;2.92;1.65;;;10.70;80.60;;;;;;5096400;28;20035;-73
2023/04/21 07:21:19;;;;;;;3.22;1.90;;;10.60;80.30;;;;;;5114803;28;20393;-73
2023/04/21 07:23:44;;;;;;;2.70;1.83;;;10.80;80.20;;;;;;5114765;28;20031;-73
2023/04/21 07:26:10;;;;;;;2.38;1.58;;;10.90;80.00;;;;;;5077188;28;20044;-72
2023/04/21 07:28:39;;;;;;;3.63;2.08;;;10.90;80.00;;;;;;5114270;28;20043;-73
2023/04/21 07:31:04;;;;;;;2.90;1.80;;;10.90;80.00;;;;;;5113473;28;20090;-72
2023/04/21 07:33:30;;;;;;;3.10;1.80;;;10.90;80.10;;;;;;5114305;28;20480;-72
2023/04/21 07:35:56;;;;;;;2.30;1.60;;;11.00;80.20;;;;;;5114262;28;20039;-72
2023/04/21 07:38:21;;;;;;;2.30;1.42;;;11.10;80.30;;;;;;5094720;28;20080;-72
2023/04/21 07:40:47;;;;;;;2.90;1.80;;;11.00;80.20;;;;;;5078899;28;20046;-73
2023/04/21 07:43:13;;;;;;;3.33;1.95;;;11.10;80.30;;;;;;5095849;28;20043;-73
2023/04/21 07:45:38;;;;;;;2.22;1.65;;;11.10;80.30;;;;;;5078773;28;20097;-73
2023/04/21 07:48:05;;;;;;;3.15;1.92;;;11.20;80.30;;;;;;5113929;28;20385;-73
2023/04/21 07:50:31;;;;;;;3.53;1.70;;;11.30;80.30;;;;;;5076667;28;20036;-74
2023/04/21 07:52:56;;;;;;;2.65;1.80;;;11.40;80.20;;;;;;5095441;28;20532;-74
2023/04/21 07:55:22;;;;;;;3.63;2.20;;;11.40;80.20;;;;;;5061937;28;20489;-73
2023/04/21 07:57:48;;;;;;;2.63;1.70;;;11.40;80.10;;;;;;5095709;28;20051;-72
2023/04/21 08:00:14;;;;;;;3.70;1.98;;;11.50;80.10;;;;;;5079770;28;20101;-73
2023/04/21 08:02:48;;;;;;;3.17;2.00;;;11.60;80.10;;;;;;5078285;28;20134;-73
2023/04/21 08:08:33;;;;;;;3.40;2.13;;;11.70;80.10;;;;;;4973634;28;20045;-74
2023/04/21 08:11:13;;;;;;;3.75;2.20;;;11.90;79.90;;;;;;4973278;28;20055;-73
2023/04/21 08:13:48;;;;;;;2.88;1.70;;;12.10;79.70;;;;;;4953792;29;20062;-73
2023/04/21 08:16:25;;;;;;;2.90;1.65;;;12.40;79.30;;;;;;4918776;29;20051;-73
2023/04/21 08:18:51;;;;;;;2.95;1.70;;;12.70;79.00;;;;;;4917402;29;20059;-70
2023/04/21 08:21:17;;;;;;;2.50;1.88;;;12.80;78.70;;;;;;4933482;29;20047;-72
2023/04/21 08:23:42;;;;;;;3.45;2.15;;;12.90;78.50;;;;;;4917826;29;20457;-72
2023/04/21 08:26:08;;;;;;;3.45;2.13;;;13.10;78.20;;;;;;4933316;29;20457;-72
2023/04/21 08:28:38;;;;;;;3.40;2.35;;;13.20;77.90;;;;;;4878905;29;20088;-72
2023/04/21 08:31:04;;;;;;;3.55;2.15;;;13.30;77.90;;;;;;4861493;29;20045;-72
2023/04/21 08:33:30;;;;;;;3.78;2.40;;;13.30;77.90;;;;;;4894197;29;20032;-72
2023/04/21 08:35:55;;;;;;;3.70;2.20;;;13.20;78.00;;;;;;4893345;29;20048;-72
2023/04/21 08:38:21;;;;;;;4.03;2.40;;;13.20;78.30;;;;;;4912052;29;20086;-72
2023/04/21 08:40:48;;;;;;;3.70;2.13;;;13.30;78.50;;;;;;4971527;28;20093;-72
2023/04/21 08:43:14;;;;;;;3.97;2.58;;;13.10;78.60;;;;;;4990987;28;20401;-71
2023/04/21 08:45:45;;;;;;;4.68;2.63;;;13.00;78.90;;;;;;5003067;28;20045;-71
2023/04/21 08:48:15;;;;;;;3.97;2.38;;;13.00;79.10;;;;;;5013959;28;20056;-72
2023/04/21 08:50:45;;;;;;;3.78;2.40;;;12.90;79.40;;;;;;5015556;28;20543;-70
2023/04/21 08:53:10;;;;;;;3.72;2.35;;;13.00;79.60;;;;;;5001774;28;20098;-72
2023/04/21 08:55:40;;;;;;;3.75;2.33;;;13.10;79.50;;;;;;5050360;28;20429;-70
2023/04/21 08:58:08;;;;;;;3.45;2.35;;;13.20;79.50;;;;;;5033553;28;20044;-70
2023/04/21 09:00:34;;;;;;;3.80;2.42;;;13.20;79.30;;;;;;5088919;28;20694;-70
2023/04/21 09:03:06;;;;;;;4.20;2.22;;;13.30;79.80;;;;;;5113659;28;20501;-70
2023/04/21 09:05:37;;;;;;;4.20;2.55;;;13.40;79.00;;;;;;5079052;28;20092;-72
2023/04/21 09:08:12;;;;;;;4.10;2.58;;;13.40;78.80;;;;;;5079089;28;20130;-72
2023/04/21 09:10:48;;;;;;;4.40;2.47;;;13.50;78.70;;;;;;5112655;28;20046;-72
2023/04/21 09:13:15;;;;;;;3.28;2.15;;;13.40;78.70;;;;;;5109833;28;20043;-69
2023/04/21 09:15:43;;;;;;;4.05;2.28;;;13.40;78.90;;;;;;5094609;28;20516;-73
2023/04/21 09:18:12;;;;;;;4.53;2.63;;;13.30;79.00;;;;;;5077770;28;20044;-71
2023/04/21 09:20:44;;;;;;;4.53;2.72;;;13.30;79.30;;;;;;5112934;28;20036;-73
2023/04/21 09:23:11;;;;;;;4.05;2.50;;;13.40;79.30;;;;;;5061167;28;20606;-73
2023/04/21 09:25:58;;;;;;;4.05;2.33;;;13.60;79.10;;;;;;5112705;28;20079;-73
2023/04/21 09:28:31;;;;;;;4.00;2.63;;;13.60;78.80;;;;;;5112424;28;20046;-71
2023/04/21 09:30:56;;;;;;;3.50;2.22;;;13.70;78.60;;;;;;5093848;28;20040;-72
2023/04/21 09:33:22;;;;;;;4.47;2.80;;;13.70;78.50;;;;;;5112365;28;20447;-71
2023/04/21 09:35:47;;;;;;;3.53;2.45;;;13.70;78.50;;;;;;5112661;28;20036;-71
2023/04/21 09:38:13;;;;;;;4.03;2.70;;;13.70;78.60;;;;;;5094076;28;20100;-72
2023/04/21 09:40:39;;;;;;;3.80;2.50;;;13.80;78.50;;;;;;5094351;28;20043;-73
2023/04/21 09:43:05;;;;;;;3.90;2.40;;;13.80;78.60;;;;;;5092619;28;20052;-72
2023/04/21 09:45:32;;;;;;;3.92;2.40;;;13.70;78.60;;;;;;5092135;28;20511;-72
2023/04/21 09:48:00;;;;;;;3.80;2.60;;;13.80;78.70;;;;;;5093642;28;20104;-70
2023/04/21 09:50:27;;;;;;;4.50;2.70;;;13.80;78.70;;;;;;5076969;28;20101;-70
2023/04/21 09:52:54;;;;;;;4.25;2.80;;;14.00;78.60;;;;;;5076317;28;20036;-72
2023/04/21 09:55:26;;;;;;;3.97;2.72;;;14.20;78.20;;;;;;5080749;28;20492;-70
2023/04/21 09:57:58;;;;;;;4.78;2.75;;;14.30;77.80;;;;;;5096477;28;20500;-73
2023/04/21 10:02:54;;;;;;;4.28;2.88;;;14.50;76.90;;;;;;5151260;27;20135;-71
2023/04/21 10:05:19;;;;;;;4.40;3.03;;;14.40;77.30;;;;;;5049712;28;20048;-71
2023/04/21 10:07:46;;;;;;;3.88;2.67;;;14.40;77.40;;;;;;5033335;28;20033;-71
2023/04/21 10:10:28;;;;;;;4.55;3.00;;;14.40;77.40;;;;;;5067234;28;20098;-72
2023/04/21 10:13:06;;;;;;;3.83;2.60;;;14.30;77.50;;;;;;5047059;28;20092;-71
2023/04/21 10:16:15;;;;;;;4.25;3.03;;;14.40;77.20;;;;;;5150705;27;20349;-72
2023/04/21 10:18:43;;;;;;;4.72;3.00;;;14.50;78.40;;;;;;5130150;28;20044;-70
2023/04/21 10:21:10;;;;;;;4.20;2.50;;;14.30;77.60;;;;;;5130575;28;20062;-71
2023/04/21 10:23:40;;;;;;;3.88;2.45;;;14.40;77.70;;;;;;5130439;28;20533;-71
2023/04/21 10:26:21;;;;;;;3.20;2.20;;;14.50;77.70;;;;;;5129946;28;20050;-71
2023/04/21 10:28:59;;;;;;;3.47;2.17;;;14.60;77.50;;;;;;5129582;28;20116;-71
2023/04/21 10:31:32;;;;;;;4.32;2.65;;;14.60;77.30;;;;;;5126259;28;20050;-71
2023/04/21 10:34:12;;;;;;;3.33;2.10;;;14.60;77.30;;;;;;5129913;28;20473;-71
2023/04/21 10:37:07;;;;;;;3.53;2.33;;;14.70;77.20;;;;;;5129784;28;20031;-71
2023/04/21 10:39:35;;;;;;;4.20;2.55;;;14.70;77.10;;;;;;5129901;28;20031;-71
2023/04/21 10:42:23;;;;;;;3.95;2.47;;;14.50;77.00;;;;;;5111961;28;20047;-72
2023/04/21 10:45:01;;;;;;;4.03;2.58;;;14.70;77.30;;;;;;5129384;28;20035;-71
2023/04/21 10:47:36;;;;;;;3.55;2.25;;;14.70;77.20;;;;;;5130013;28;20039;-71
2023/04/21 10:50:11;;;;;;;3.13;2.20;;;14.70;77.10;;;;;;5109828;28;20131;-72
2023/04/21 10:52:37;;;;;;;3.28;2.30;;;14.70;77.00;;;;;;5129510;28;20052;-71
2023/04/21 10:55:09;;;;;;;3.45;2.30;;;14.60;77.70;;;;;;5129275;28;20043;-71
2023/04/21 10:57:35;;;;;;;3.88;2.28;;;14.60;77.20;;;;;;5129717;28;20526;-72
2023/04/21 11:00:05;;;;;;;3.75;2.33;;;14.60;77.20;;;;;;5109707;28;20047;-71
2023/04/21 11:02:33;;;;;;;3.75;2.55;;;14.70;77.10;;;;;;5129288;28;20046;-72
2023/04/21 11:05:00;;;;;;;3.28;2.10;;;14.80;77.10;;;;;;5129504;28;20039;-72
2023/04/21 11:07:26;;;;;;;4.65;2.65;;;14.70;76.80;;;;;;5129493;28;20179;-72
2023/04/21 11:10:03;;;;;;;5.35;2.88;;;14.70;77.00;;;;;;5094402;28;20130;-71
2023/04/21 11:12:31;;;;;;;3.55;2.33;;;14.60;77.20;;;;;;5128944;28;20126;-70
2023/04/21 11:14:57;;;;;;;4.20;2.75;;;14.50;77.40;;;;;;5129315;28;20054;-71
2023/04/21 11:17:24;;;;;;;4.00;2.58;;;14.50;77.50;;;;;;5129433;28;20099;-72
2023/04/21 11:19:52;;;;;;;3.45;2.35;;;14.50;77.50;;;;;;5128903;28;20039;-72
2023/04/21 11:22:20;;;;;;;3.55;2.60;;;14.60;77.40;;;;;;5128823;28;20035;-72
2023/04/21 11:24:49;;;;;;;5.13;2.85;;;14.80;77.20;;;;;;5128713;28;20061;-70
